createdAt,value
2022-09-15T00:00:30.854Z,1.00
2022-09-15T00:03:01.085Z,1.08
2022-09-15T00:05:31.376Z,0.70
2022-09-15T00:08:01.676Z,0.77
2022-09-15T00:10:32.049Z,0.90
2022-09-15T00:13:02.364Z,1.20
2022-09-15T00:15:32.661Z,0.70
2022-09-15T00:18:02.996Z,0.80
2022-09-15T00:20:33.310Z,0.80
2022-09-15T00:23:04.556Z,0.60
2022-09-15T00:25:35.062Z,0.60
2022-09-15T00:28:05.361Z,0.90
2022-09-15T00:30:35.815Z,0.80
2022-09-15T00:33:06.482Z,0.80
2022-09-15T00:35:40.654Z,0.80
2022-09-15T00:38:13.405Z,0.85
2022-09-15T00:40:50.461Z,0.80
2022-09-15T00:43:23.334Z,0.93
2022-09-15T00:45:54.214Z,0.70
2022-09-15T00:48:25.585Z,0.75
2022-09-15T00:51:00.107Z,0.60
2022-09-15T00:53:32.377Z,0.60
2022-09-15T00:56:05.071Z,0.70
2022-09-15T00:58:50.528Z,0.63
2022-09-15T01:01:20.773Z,0.70
2022-09-15T01:03:50.973Z,0.90
2022-09-15T01:06:43.691Z,0.70
2022-09-15T01:09:29.088Z,1.08
2022-09-15T01:11:59.815Z,0.73
2022-09-15T01:14:30.228Z,0.70
2022-09-15T01:17:34.490Z,0.68
2022-09-15T01:20:25.697Z,1.35
2022-09-15T01:23:39.987Z,0.73
2022-09-15T01:26:43.857Z,1.00
2022-09-15T01:29:26.152Z,0.60
2022-09-15T01:32:36.488Z,0.52
2022-09-15T01:35:33.719Z,1.02
2022-09-15T01:38:30.170Z,0.75
2022-09-15T01:41:19.874Z,1.02
2022-09-15T01:44:01.375Z,0.80
2022-09-15T01:46:36.858Z,0.70
2022-09-15T01:49:10.634Z,0.63
2022-09-15T01:51:43.085Z,0.70
2022-09-15T01:54:14.503Z,1.20
2022-09-15T01:56:45.599Z,0.80
2022-09-15T01:59:15.733Z,0.93
2022-09-15T02:01:56.300Z,0.55
2022-09-15T02:04:43.241Z,0.70
2022-09-15T02:07:39.720Z,0.50
2022-09-15T02:10:46.553Z,0.60
2022-09-15T02:13:35.723Z,0.60
2022-09-15T02:16:06.766Z,0.75
2022-09-15T02:18:51.115Z,0.73
2022-09-15T02:21:31.451Z,0.65
2022-09-15T02:24:06.265Z,0.55
2022-09-15T02:26:39.959Z,0.60
2022-09-15T02:29:14.764Z,0.68
2022-09-15T02:31:46.146Z,0.60
2022-09-15T02:34:48.547Z,0.70
2022-09-15T02:37:19.209Z,0.52
2022-09-15T02:39:54.543Z,0.50
2022-09-15T02:42:30.097Z,0.73
2022-09-15T02:45:01.135Z,0.60
2022-09-15T02:47:33.940Z,0.55
2022-09-15T02:50:04.120Z,0.73
2022-09-15T02:52:34.646Z,0.90
2022-09-15T02:55:04.792Z,0.80
2022-09-15T02:57:34.922Z,1.00
2022-09-15T03:00:16.590Z,0.63
2022-09-15T03:02:52.304Z,0.60
2022-09-15T03:05:25.303Z,0.57
2022-09-15T03:07:56.392Z,0.60
2022-09-15T03:10:27.977Z,0.80
2022-09-15T03:12:58.529Z,0.45
2022-09-15T03:15:29.823Z,0.52
2022-09-15T03:18:00.453Z,0.70
2022-09-15T03:20:31.910Z,0.60
2022-09-15T03:23:02.019Z,0.90
2022-09-15T03:25:32.327Z,0.70
2022-09-15T03:28:02.439Z,0.70
2022-09-15T03:30:32.690Z,0.70
2022-09-15T03:33:02.827Z,0.52
2022-09-15T03:35:33.150Z,0.70
2022-09-15T03:38:03.459Z,0.60
2022-09-15T03:40:35.300Z,0.77
2022-09-15T03:43:05.668Z,0.73
2022-09-15T03:45:35.849Z,0.60
2022-09-15T03:48:07.995Z,0.52
2022-09-15T03:50:38.299Z,0.43
2022-09-15T03:53:08.739Z,1.00
2022-09-15T03:55:39.096Z,0.90
2022-09-15T03:58:09.521Z,0.90
2022-09-15T04:00:40.099Z,0.80
2022-09-15T04:03:11.217Z,0.88
2022-09-15T04:05:41.722Z,0.73
2022-09-15T04:08:15.455Z,0.60
2022-09-15T04:10:45.571Z,0.70
2022-09-15T04:13:15.822Z,0.98
2022-09-15T04:15:46.255Z,0.75
2022-09-15T04:18:16.432Z,0.80
2022-09-15T04:20:46.578Z,0.75
2022-09-15T04:23:16.891Z,0.50
2022-09-15T04:25:47.083Z,0.60
2022-09-15T04:28:17.275Z,0.50
2022-09-15T04:30:47.416Z,0.73
2022-09-15T04:33:17.526Z,0.75
2022-09-15T04:35:47.827Z,0.65
2022-09-15T04:38:25.467Z,0.40
2022-09-15T04:40:57.079Z,0.73
2022-09-15T04:43:30.342Z,0.88
2022-09-15T04:46:01.082Z,0.50
2022-09-15T04:48:34.277Z,0.65
2022-09-15T04:51:16.225Z,0.55
2022-09-15T04:53:47.201Z,0.70
2022-09-15T04:56:19.804Z,0.60
2022-09-15T04:58:53.206Z,0.60
2022-09-15T05:01:26.228Z,0.70
2022-09-15T05:03:57.260Z,0.70
2022-09-15T05:06:29.480Z,0.60
2022-09-15T05:09:00.914Z,0.60
2022-09-15T05:11:32.690Z,0.70
2022-09-15T05:14:03.324Z,0.90
2022-09-15T05:16:33.887Z,0.60
2022-09-15T05:19:04.999Z,0.60
2022-09-15T05:21:35.882Z,0.80
2022-09-15T05:24:06.818Z,0.52
2022-09-15T05:26:37.070Z,0.70
2022-09-15T05:29:07.395Z,0.60
2022-09-15T05:31:37.615Z,0.40
2022-09-15T05:34:08.930Z,0.60
2022-09-15T05:36:39.268Z,0.63
2022-09-15T05:39:09.574Z,0.43
2022-09-15T05:41:40.147Z,0.50
2022-09-15T05:44:12.686Z,0.80
2022-09-15T05:46:42.972Z,0.50
2022-09-15T05:49:13.375Z,0.73
2022-09-15T05:51:43.888Z,0.50
2022-09-15T05:54:13.984Z,0.68
2022-09-15T05:56:44.224Z,0.73
2022-09-15T05:59:14.435Z,0.50
2022-09-15T06:01:44.820Z,0.70
2022-09-15T06:04:15.070Z,0.65
2022-09-15T06:06:45.224Z,0.80
2022-09-15T06:09:15.472Z,0.68
2022-09-15T06:11:46.022Z,0.60
2022-09-15T06:14:16.224Z,0.73
2022-09-15T06:16:46.770Z,0.60
2022-09-15T06:19:16.916Z,0.60
2022-09-15T06:21:47.137Z,0.75
2022-09-15T06:24:17.409Z,0.80
2022-09-15T06:26:47.586Z,0.95
2022-09-15T06:29:18.010Z,0.77
2022-09-15T06:31:48.226Z,0.73
2022-09-15T06:34:18.532Z,0.73
2022-09-15T06:36:48.853Z,0.73
2022-09-15T06:39:18.983Z,0.90
2022-09-15T06:42:01.622Z,1.00
2022-09-15T06:44:32.693Z,0.90
2022-09-15T06:47:02.887Z,0.80
2022-09-15T06:49:33.501Z,0.68
2022-09-15T06:52:06.836Z,0.75
2022-09-15T06:54:37.748Z,1.08
2022-09-15T06:57:08.054Z,0.93
2022-09-15T06:59:38.496Z,0.90
2022-09-15T07:02:11.412Z,0.73
2022-09-15T07:04:41.753Z,0.88
2022-09-15T07:07:12.417Z,0.93
2022-09-15T07:09:45.062Z,0.90
2022-09-15T07:12:17.254Z,1.35
2022-09-15T07:14:47.566Z,1.50
2022-09-15T07:17:17.795Z,1.00
2022-09-15T07:19:47.942Z,1.70
2022-09-15T07:22:18.075Z,1.20
2022-09-15T07:24:48.217Z,1.02
2022-09-15T07:27:18.328Z,1.38
2022-09-15T07:29:48.707Z,1.10
2022-09-15T07:32:18.876Z,1.20
2022-09-15T07:34:49.708Z,1.00
2022-09-15T07:37:20.029Z,1.25
2022-09-15T07:39:50.182Z,1.17
2022-09-15T07:42:20.504Z,1.02
2022-09-15T07:44:50.600Z,1.17
2022-09-15T07:47:21.601Z,1.20
2022-09-15T07:49:52.151Z,1.08
2022-09-15T07:52:22.364Z,1.15
2022-09-15T07:54:52.539Z,1.02
2022-09-15T07:57:22.628Z,1.17
2022-09-15T07:59:52.964Z,1.30
2022-09-15T08:02:24.365Z,1.15
2022-09-15T08:04:54.842Z,1.02
2022-09-15T08:07:24.999Z,1.23
2022-09-15T08:09:55.155Z,1.20
2022-09-15T08:12:25.330Z,1.50
2022-09-15T08:14:55.963Z,1.35
2022-09-15T08:17:26.131Z,1.20
2022-09-15T08:19:56.412Z,1.00
2022-09-15T08:22:26.764Z,1.00
2022-09-15T08:24:56.963Z,1.17
2022-09-15T08:27:27.062Z,1.20
2022-09-15T08:29:57.207Z,0.98
2022-09-15T08:32:27.388Z,1.00
2022-09-15T08:34:57.539Z,0.77
2022-09-15T08:37:27.718Z,1.23
2022-09-15T08:39:57.899Z,0.93
2022-09-15T08:42:30.829Z,0.98
2022-09-15T08:45:18.600Z,1.13
2022-09-15T08:47:50.657Z,1.30
2022-09-15T08:50:29.087Z,1.27
2022-09-15T08:53:14.532Z,1.52
2022-09-15T08:55:57.029Z,1.50
2022-09-15T08:58:33.260Z,1.38
2022-09-15T09:01:10.544Z,1.83
2022-09-15T09:04:15.369Z,1.58
2022-09-15T09:07:06.176Z,1.70
2022-09-15T09:10:19.304Z,2.30
2022-09-15T09:13:25.747Z,2.25
2022-09-15T09:16:29.783Z,3.17
2022-09-15T09:19:25.749Z,2.30
2022-09-15T09:22:11.719Z,2.40
2022-09-15T09:24:46.545Z,1.92
2022-09-15T09:27:22.551Z,2.15
2022-09-15T09:30:15.681Z,1.90
2022-09-15T09:33:12.309Z,1.90
2022-09-15T09:35:53.897Z,2.28
2022-09-15T09:38:32.567Z,2.20
2022-09-15T09:41:03.073Z,2.08
2022-09-15T09:43:34.756Z,1.75
2022-09-15T09:46:05.153Z,1.80
2022-09-15T09:48:37.545Z,1.85
2022-09-15T09:51:27.374Z,1.80
2022-09-15T09:53:57.554Z,1.73
2022-09-15T09:56:29.213Z,1.98
2022-09-15T09:58:59.378Z,1.83
2022-09-15T10:01:29.723Z,1.98
2022-09-15T10:04:24.947Z,2.15
2022-09-15T10:06:58.875Z,2.00
2022-09-15T10:09:33.144Z,2.05
2022-09-15T10:14:58.852Z,1.85
2022-09-15T10:17:44.884Z,1.88
2022-09-15T10:20:47.761Z,2.08
2022-09-15T10:23:20.654Z,2.05
2022-09-15T10:26:00.154Z,1.70
2022-09-15T10:28:30.903Z,1.80
2022-09-15T10:31:17.170Z,1.50
2022-09-15T10:33:49.450Z,1.48
2022-09-15T10:36:31.551Z,1.35
2022-09-15T10:39:02.465Z,1.33
2022-09-15T10:41:36.808Z,1.80
2022-09-15T10:44:07.209Z,1.60
2022-09-15T10:47:01.386Z,1.50
2022-09-15T10:49:52.695Z,1.50
2022-09-15T10:52:41.795Z,1.30
2022-09-15T10:55:52.591Z,1.90
2022-09-15T10:59:05.182Z,2.13
2022-09-15T11:02:05.049Z,2.20
2022-09-15T11:05:22.051Z,1.85
2022-09-15T11:07:52.970Z,1.80
2022-09-15T11:10:32.026Z,1.95
2022-09-15T11:13:49.323Z,1.55
2022-09-15T11:16:31.420Z,1.50
2022-09-15T11:19:31.139Z,1.42
2022-09-15T11:22:10.989Z,1.40
2022-09-15T11:24:44.896Z,1.40
2022-09-15T11:27:30.209Z,1.40
2022-09-15T11:30:06.498Z,1.38
2022-09-15T11:33:01.169Z,2.15
2022-09-15T11:35:58.417Z,2.25
2022-09-15T11:38:49.597Z,1.67
2022-09-15T11:41:28.510Z,1.52
2022-09-15T11:44:32.000Z,1.60
2022-09-15T11:47:23.396Z,1.35
2022-09-15T11:50:05.220Z,1.65
2022-09-15T11:52:47.439Z,1.65
2022-09-15T11:55:43.268Z,1.67
2022-09-15T11:58:22.669Z,1.70
2022-09-15T12:01:12.703Z,1.50
2022-09-15T12:03:43.019Z,1.80
2022-09-15T12:06:23.800Z,1.77
2022-09-15T12:09:03.895Z,2.25
2022-09-15T12:11:56.660Z,2.05
2022-09-15T12:14:31.634Z,1.80
2022-09-15T12:17:03.257Z,2.03
2022-09-15T12:19:36.512Z,1.80
2022-09-15T12:22:51.175Z,1.95
2022-09-15T12:25:29.842Z,2.03
2022-09-15T12:28:24.225Z,1.73
2022-09-15T12:31:21.203Z,1.90
2022-09-15T12:34:06.289Z,1.70
2022-09-15T12:36:51.215Z,2.00
2022-09-15T12:39:21.385Z,1.50
2022-09-15T12:42:02.426Z,1.75
2022-09-15T12:44:53.298Z,1.50
2022-09-15T12:47:30.219Z,1.75
2022-09-15T12:50:18.111Z,1.50
2022-09-15T12:53:14.238Z,1.30
2022-09-15T12:56:21.450Z,1.73
2022-09-15T12:58:53.294Z,1.33
2022-09-15T13:01:32.057Z,1.55
2022-09-15T13:04:03.060Z,1.70
2022-09-15T13:06:37.198Z,1.50
2022-09-15T13:09:07.446Z,1.48
2022-09-15T13:11:40.342Z,1.40
2022-09-15T13:14:41.158Z,1.45
2022-09-15T13:17:22.268Z,1.83
2022-09-15T13:20:01.115Z,1.48
2022-09-15T13:22:43.501Z,1.60
2022-09-15T13:25:17.270Z,1.27
2022-09-15T13:27:49.483Z,1.40
2022-09-15T13:30:24.094Z,1.58
2022-09-15T13:33:09.690Z,1.23
2022-09-15T13:36:01.120Z,1.48
2022-09-15T13:38:54.886Z,1.20
2022-09-15T13:41:37.398Z,1.40
2022-09-15T13:44:14.209Z,1.05
2022-09-15T13:47:11.637Z,0.95
2022-09-15T13:50:03.519Z,1.33
2022-09-15T13:52:39.417Z,0.95
2022-09-15T13:55:23.192Z,1.20
2022-09-15T14:01:07.275Z,0.95
2022-09-15T14:03:49.913Z,0.93
2022-09-15T14:06:37.131Z,0.85
2022-09-15T14:09:31.264Z,1.13
2022-09-15T14:12:05.745Z,1.20
2022-09-15T14:14:42.375Z,1.20
2022-09-15T14:17:33.729Z,0.70
2022-09-15T14:20:06.509Z,1.00
2022-09-15T14:22:37.785Z,0.80
2022-09-15T14:25:10.528Z,1.00
2022-09-15T14:27:47.282Z,0.95
2022-09-15T14:30:29.722Z,0.90
2022-09-15T14:33:05.692Z,1.00
2022-09-15T14:35:40.573Z,0.77
2022-09-15T14:38:24.252Z,0.90
2022-09-15T14:40:58.644Z,1.10
2022-09-15T14:43:45.059Z,1.00
2022-09-15T14:46:23.061Z,1.20
2022-09-15T14:48:53.321Z,1.00
2022-09-15T14:51:30.483Z,1.00
2022-09-15T14:54:03.333Z,1.17
2022-09-15T14:56:37.824Z,1.05
2022-09-15T14:59:21.652Z,1.40
2022-09-15T15:02:03.552Z,1.65
2022-09-15T15:04:43.960Z,1.25
2022-09-15T15:07:21.624Z,1.48
2022-09-15T15:10:18.918Z,1.48
2022-09-15T15:12:53.121Z,1.27
2022-09-15T15:15:23.570Z,1.40
2022-09-15T15:17:58.605Z,1.27
2022-09-15T15:20:32.004Z,1.15
2022-09-15T15:23:27.392Z,1.30
2022-09-15T15:26:30.611Z,1.20
2022-09-15T15:29:00.755Z,1.25
2022-09-15T15:31:33.041Z,0.90
2022-09-15T15:34:09.897Z,0.82
2022-09-15T15:36:40.030Z,1.20
2022-09-15T15:39:21.779Z,0.90
2022-09-15T15:42:01.274Z,0.98
2022-09-15T15:44:33.399Z,0.90
2022-09-15T15:47:15.929Z,1.10
2022-09-15T15:50:11.747Z,0.85
2022-09-15T15:52:36.594Z,1.00
2022-09-15T15:55:08.059Z,1.08
2022-09-15T15:57:41.908Z,0.95
2022-09-15T16:00:25.811Z,0.95
2022-09-15T16:02:56.285Z,1.02
2022-09-15T16:14:17.669Z,0.77
2022-09-15T16:16:48.213Z,0.63
2022-09-15T16:19:18.354Z,0.98
2022-09-15T16:21:48.599Z,0.70
2022-09-15T16:24:19.015Z,0.60
2022-09-15T16:26:53.594Z,0.77
2022-09-15T16:29:30.836Z,0.68
2022-09-15T16:32:01.090Z,0.68
2022-09-15T16:34:31.208Z,0.52
2022-09-15T16:37:01.411Z,0.60
2022-09-15T16:39:33.171Z,0.65
2022-09-15T16:42:03.281Z,0.70
2022-09-15T16:44:33.407Z,0.60
2022-09-15T16:47:03.981Z,0.60
2022-09-15T16:49:34.506Z,0.70
2022-09-15T16:52:04.844Z,0.50
2022-09-15T16:54:35.081Z,0.90
2022-09-15T16:57:05.366Z,0.45
2022-09-15T16:59:35.557Z,0.63
2022-09-15T17:02:05.765Z,0.50
2022-09-15T17:04:36.011Z,0.40
2022-09-15T17:07:06.289Z,0.52
2022-09-15T17:09:36.550Z,0.50
2022-09-15T17:12:06.830Z,0.50
2022-09-15T17:14:37.103Z,0.40
2022-09-15T17:17:26.975Z,0.60
2022-09-15T17:19:57.205Z,0.40
2022-09-15T17:22:27.363Z,0.50
2022-09-15T17:24:57.558Z,0.40
2022-09-15T17:27:27.851Z,0.40
2022-09-15T17:29:58.005Z,0.50
2022-09-15T17:32:32.849Z,0.82
2022-09-15T17:35:07.994Z,0.60
2022-09-15T17:37:38.244Z,0.50
2022-09-15T17:40:08.951Z,0.50
2022-09-15T17:42:39.476Z,0.70
2022-09-15T17:45:23.076Z,0.43
2022-09-15T17:47:53.976Z,0.45
2022-09-15T17:50:26.768Z,0.50
2022-09-15T17:52:58.361Z,0.73
2022-09-15T17:55:36.086Z,0.47
2022-09-15T17:58:07.342Z,0.60
2022-09-15T18:00:39.911Z,0.70
2022-09-15T18:03:36.346Z,0.60
2022-09-15T18:06:09.549Z,0.57
2022-09-15T18:08:39.824Z,0.60
2022-09-15T18:11:10.440Z,0.50
2022-09-15T18:13:40.657Z,0.43
2022-09-15T18:16:15.878Z,0.60
2022-09-15T18:18:46.460Z,0.50
2022-09-15T18:21:31.043Z,0.60
2022-09-15T18:24:01.225Z,0.73
2022-09-15T18:26:31.464Z,0.60
2022-09-15T18:29:01.689Z,0.57
2022-09-15T18:31:31.852Z,0.70
2022-09-15T18:34:02.263Z,0.60
2022-09-15T18:36:32.453Z,0.40
2022-09-15T18:39:02.924Z,0.45
2022-09-15T18:41:33.070Z,0.40
2022-09-15T18:44:03.425Z,0.65
2022-09-15T18:46:33.628Z,0.60
2022-09-15T18:49:05.062Z,0.50
2022-09-15T18:51:51.131Z,0.40
2022-09-15T18:54:22.195Z,0.30
2022-09-15T18:56:53.180Z,0.40
2022-09-15T18:59:23.397Z,0.55
2022-09-15T19:01:56.809Z,0.30
2022-09-15T19:04:31.634Z,0.30
2022-09-15T19:07:02.909Z,0.40
2022-09-15T19:09:33.411Z,0.30
2022-09-15T19:12:03.929Z,0.30
2022-09-15T19:14:34.797Z,0.40
2022-09-15T19:17:05.062Z,0.40
2022-09-15T19:19:35.830Z,0.35
2022-09-15T19:22:06.320Z,0.30
2022-09-15T19:24:37.097Z,0.55
2022-09-15T19:27:09.295Z,0.40
2022-09-15T19:29:40.570Z,0.40
2022-09-15T19:32:14.399Z,0.40
2022-09-15T19:34:44.678Z,0.30
2022-09-15T19:37:18.823Z,0.40
2022-09-15T19:39:50.518Z,0.35
2022-09-15T19:42:20.900Z,0.50
2022-09-15T19:44:51.241Z,0.30
2022-09-15T19:47:21.420Z,0.40
2022-09-15T19:49:54.947Z,0.40
2022-09-15T19:52:25.092Z,0.50
2022-09-15T19:54:55.373Z,0.40
2022-09-15T19:57:26.022Z,0.50
2022-09-15T19:59:56.185Z,0.38
2022-09-15T20:02:26.338Z,0.50
2022-09-15T20:07:42.680Z,0.50
2022-09-15T20:10:14.198Z,0.43
2022-09-15T20:12:44.374Z,0.52
2022-09-15T20:15:14.661Z,0.50
2022-09-15T20:17:44.853Z,0.50
2022-09-15T20:20:15.194Z,0.40
2022-09-15T20:22:45.544Z,0.43
2022-09-15T20:25:15.696Z,0.22
2022-09-15T20:27:45.947Z,0.20
2022-09-15T20:30:25.760Z,0.30
2022-09-15T20:32:55.967Z,0.28
2022-09-15T20:35:26.805Z,0.30
2022-09-15T20:37:56.993Z,0.65
2022-09-15T20:40:28.027Z,0.40
2022-09-15T20:42:58.151Z,0.38
2022-09-15T20:48:15.289Z,0.63
2022-09-15T20:50:45.593Z,0.50
2022-09-15T20:53:15.966Z,0.70
2022-09-15T20:55:52.295Z,0.40
2022-09-15T20:58:22.601Z,0.60
2022-09-15T21:00:54.282Z,0.70
2022-09-15T21:03:25.996Z,0.50
2022-09-15T21:06:02.183Z,0.50
2022-09-15T21:08:33.015Z,0.65
2022-09-15T21:11:04.174Z,0.60
2022-09-15T21:13:38.804Z,0.60
2022-09-15T21:16:11.874Z,0.98
2022-09-15T21:18:43.748Z,0.68
2022-09-15T21:21:21.832Z,0.80
2022-09-15T21:23:57.202Z,0.60
2022-09-15T21:26:29.816Z,0.43
2022-09-15T21:29:00.328Z,0.47
2022-09-15T21:31:35.196Z,0.63
2022-09-15T21:34:06.286Z,0.85
2022-09-15T21:36:36.718Z,0.88
2022-09-15T21:39:07.004Z,0.60
2022-09-15T21:41:37.585Z,0.50
2022-09-15T21:44:07.917Z,0.70
2022-09-15T21:46:38.104Z,0.73
2022-09-15T21:49:08.394Z,0.60
2022-09-15T21:51:38.594Z,0.60
2022-09-15T21:54:08.821Z,0.70
2022-09-15T21:56:39.079Z,0.80
2022-09-15T21:59:13.380Z,0.60
2022-09-15T22:01:43.783Z,0.60
2022-09-15T22:04:14.076Z,0.70
2022-09-15T22:06:44.863Z,0.73
2022-09-15T22:09:19.763Z,0.60
2022-09-15T22:11:50.921Z,0.75
2022-09-15T22:14:21.157Z,0.73
2022-09-15T22:16:51.792Z,0.75
2022-09-15T22:19:22.241Z,0.60
2022-09-15T22:21:52.550Z,0.60
2022-09-15T22:24:22.921Z,0.70
2022-09-15T22:26:53.066Z,1.08
2022-09-15T22:29:23.309Z,0.68
2022-09-15T22:31:53.580Z,0.93
2022-09-15T22:34:23.817Z,0.60
2022-09-15T22:36:53.961Z,0.63
2022-09-15T22:39:38.502Z,0.68
2022-09-15T22:42:14.851Z,0.68
2022-09-15T22:44:45.830Z,0.70
2022-09-15T22:47:15.982Z,0.60
2022-09-15T22:49:46.330Z,0.80
2022-09-15T22:52:16.521Z,0.75
2022-09-15T22:54:46.711Z,0.85
2022-09-15T22:57:17.734Z,0.80
2022-09-15T22:59:47.922Z,0.55
2022-09-15T23:02:18.031Z,0.52
2022-09-15T23:04:48.299Z,0.77
2022-09-15T23:07:18.461Z,1.10
2022-09-15T23:09:48.990Z,1.00
2022-09-15T23:12:19.563Z,0.68
2022-09-15T23:14:50.869Z,0.80
2022-09-15T23:17:21.005Z,0.77
2022-09-15T23:19:51.301Z,0.98
2022-09-15T23:22:21.377Z,0.82
2022-09-15T23:24:51.500Z,0.95
2022-09-15T23:27:21.964Z,0.70
2022-09-15T23:29:52.172Z,1.20
2022-09-15T23:32:22.366Z,0.93
2022-09-15T23:34:54.255Z,0.98
2022-09-15T23:37:24.584Z,1.02
2022-09-15T23:39:54.817Z,0.80
2022-09-15T23:42:25.085Z,0.90
2022-09-15T23:44:55.321Z,0.70
2022-09-15T23:47:25.489Z,1.17
2022-09-15T23:49:55.574Z,1.00
2022-09-15T23:52:25.671Z,0.82
2022-09-15T23:54:55.758Z,0.63
2022-09-15T23:57:25.860Z,0.70
2022-09-15T23:59:56.078Z,0.70
